Time;durP1;ratioP1;P1;durP2;ratioP2;P2;SDS_P1;SDS_P2;PMS_P1;PMS_P2;Temp;Humidity;BMP_temperature;BMP_pressure;BME280_temperature;BME280_humidity;BME280_pressure;Samples;Min_cycle;Max_cycle;Signal;HPM_P1;HPM_P2
2023/08/02 00:01:19;;;;;;;2.90;1.80;;;;;;;-128.00;-1.00;-1.00;18859;295;7504679;-32
2023/08/02 00:03:45;;;;;;;4.20;2.40;;;;;;;-128.00;-1.00;-1.00;18868;295;7504092;-32
2023/08/02 00:06:11;;;;;;;4.60;2.00;;;;;;;-128.00;-1.00;-1.00;18896;288;7504947;-32
2023/08/02 00:08:37;;;;;;;3.10;1.70;;;;;;;-128.00;-1.00;-1.00;18843;288;7504963;-32
2023/08/02 00:11:04;;;;;;;2.60;2.10;;;;;;;-128.00;-1.00;-1.00;18865;296;7504121;-36
2023/08/02 00:13:30;;;;;;;3.40;2.50;;;;;;;-128.00;-1.00;-1.00;18886;295;7504390;-35
2023/08/02 00:15:56;;;;;;;4.30;2.00;;;;;;;-128.00;-1.00;-1.00;18876;295;7504549;-36
2023/08/02 00:18:23;;;;;;;2.90;1.60;;;;;;;-128.00;-1.00;-1.00;18879;288;7504835;-33
2023/08/02 00:20:50;;;;;;;3.00;2.30;;;;;;;-128.00;-1.00;-1.00;18450;296;7504354;-37
2023/08/02 00:23:16;;;;;;;7.40;2.20;;;;;;;-128.00;-1.00;-1.00;18470;296;7505262;-33
2023/08/02 00:25:41;;;;;;;2.80;1.50;;;;;;;-128.00;-1.00;-1.00;18462;295;7505483;-36
2023/08/02 00:28:07;;;;;;;10.30;2.30;;;;;;;-128.00;-1.00;-1.00;18862;295;7504283;-38
2023/08/02 00:30:44;;;;;;;4.50;2.30;;;;;;;-128.00;-1.00;-1.00;18853;288;7505380;-33
2023/08/02 00:33:10;;;;;;;2.50;1.70;;;;;;;-128.00;-1.00;-1.00;18478;288;7505487;-37
2023/08/02 00:35:45;;;;;;;4.10;2.20;;;;;;;-128.00;-1.00;-1.00;18491;312;7505069;-34
2023/08/02 01:17:46;;;;;;;12.10;1.90;;;;;;;-99.90;19.20;19645.83;19543;320;8044793;-33
2023/08/02 01:20:12;;;;;;;2.70;2.10;;;;;;;-128.00;-1.00;-1.00;18388;298;7504320;-37
2023/08/02 01:22:38;;;;;;;2.10;1.90;;;;;;;-128.00;-1.00;-1.00;18923;296;7505552;-35
2023/08/02 01:25:05;;;;;;;2.10;1.50;;;;;;;-128.00;-1.00;-1.00;18869;289;7504512;-34
2023/08/02 01:27:35;;;;;;;2.40;1.30;;;;;;;-128.00;-1.00;-1.00;18451;308;7506458;-33
2023/08/02 01:30:01;;;;;;;2.00;1.30;;;;;;;-128.00;-1.00;-1.00;18500;296;7504729;-37
2023/08/02 01:32:27;;;;;;;2.70;1.40;;;;;;;-128.00;-1.00;-1.00;18487;289;7506329;-37
2023/08/02 01:34:53;;;;;;;2.80;1.60;;;;;;;-128.00;-1.00;-1.00;18462;324;7504944;-33
2023/08/02 01:37:18;;;;;;;1.30;1.00;;;;;;;-128.00;-1.00;-1.00;18471;285;7505958;-37
2023/08/02 01:39:44;;;;;;;3.00;1.60;;;;;;;-128.00;-1.00;-1.00;18853;285;7505049;-33
2023/08/02 01:42:11;;;;;;;6.80;2.30;;;;;;;-128.00;-1.00;-1.00;18867;296;7505381;-37
2023/08/02 01:44:37;;;;;;;2.60;2.00;;;;;;;-128.00;-1.00;-1.00;18887;297;7504461;-33
2023/08/02 01:47:03;;;;;;;4.60;1.50;;;;;;;-128.00;-1.00;-1.00;18883;296;7505270;-34
2023/08/02 01:49:30;;;;;;;2.60;1.50;;;;;;;-128.00;-1.00;-1.00;18854;344;7505005;-36
2023/08/02 01:51:56;;;;;;;3.40;1.60;;;;;;;-128.00;-1.00;-1.00;18841;296;7505493;-36
2023/08/02 01:54:22;;;;;;;4.40;1.50;;;;;;;-128.00;-1.00;-1.00;18875;309;7505357;-36
2023/08/02 01:56:48;;;;;;;2.10;1.80;;;;;;;-128.00;-1.00;-1.00;18892;297;7504878;-36
2023/08/02 01:59:15;;;;;;;8.10;2.10;;;;;;;-128.00;-1.00;-1.00;18870;285;7505289;-35
2023/08/02 02:01:41;;;;;;;6.30;2.20;;;;;;;-128.00;-1.00;-1.00;18861;320;7504545;-34
2023/08/02 02:04:07;;;;;;;3.70;1.80;;;;;;;-128.00;-1.00;-1.00;18916;297;7504424;-34
2023/08/02 02:06:33;;;;;;;4.30;2.30;;;;;;;-128.00;-1.00;-1.00;18867;348;7504897;-33
2023/08/02 02:08:59;;;;;;;3.70;2.10;;;;;;;-128.00;-1.00;-1.00;18855;348;7504632;-34
2023/08/02 02:11:26;;;;;;;2.70;1.80;;;;;;;-128.00;-1.00;-1.00;18854;285;7504442;-32
2023/08/02 02:13:52;;;;;;;2.90;1.90;;;;;;;-128.00;-1.00;-1.00;18866;296;7504196;-32
2023/08/02 02:16:18;;;;;;;3.70;2.10;;;;;;;-128.00;-1.00;-1.00;18857;285;7505349;-37
2023/08/02 02:18:44;;;;;;;4.20;2.30;;;;;;;-128.00;-1.00;-1.00;18887;285;7504668;-33
2023/08/02 02:21:10;;;;;;;3.00;1.50;;;;;;;-128.00;-1.00;-1.00;18894;289;7504668;-33
2023/08/02 02:23:36;;;;;;;11.80;2.60;;;;;;;-128.00;-1.00;-1.00;18888;289;7505086;-36
2023/08/02 02:26:02;;;;;;;2.60;1.80;;;;;;;-128.00;-1.00;-1.00;18870;289;7504385;-36
2023/08/02 02:28:29;;;;;;;2.50;1.70;;;;;;;-128.00;-1.00;-1.00;18863;297;7505372;-34
2023/08/02 02:30:56;;;;;;;3.20;2.10;;;;;;;-128.00;-1.00;-1.00;18874;285;7504551;-33
2023/08/02 02:33:22;;;;;;;4.30;2.10;;;;;;;-128.00;-1.00;-1.00;18483;296;7504541;-33
2023/08/02 02:35:48;;;;;;;2.40;1.80;;;;;;;-128.00;-1.00;-1.00;18456;316;7506246;-37
2023/08/02 02:38:14;;;;;;;4.40;1.90;;;;;;;-128.00;-1.00;-1.00;18850;305;7504597;-36
2023/08/02 02:40:40;;;;;;;3.60;1.30;;;;;;;-128.00;-1.00;-1.00;18884;324;7505397;-33
2023/08/02 02:43:06;;;;;;;13.40;2.30;;;;;;;-128.00;-1.00;-1.00;18838;289;7504525;-36
2023/08/02 02:45:33;;;;;;;2.20;1.70;;;;;;;-128.00;-1.00;-1.00;18865;289;7504679;-32
2023/08/02 02:47:59;;;;;;;4.80;2.80;;;;;;;-128.00;-1.00;-1.00;18862;297;7505989;-35
2023/08/02 02:50:25;;;;;;;7.50;2.60;;;;;;;-128.00;-1.00;-1.00;18873;288;7504852;-32
2023/08/02 02:52:51;;;;;;;3.00;2.10;;;;;;;-128.00;-1.00;-1.00;18854;297;7505299;-32
2023/08/02 02:55:18;;;;;;;4.50;2.50;;;;;;;-128.00;-1.00;-1.00;18880;285;7504641;-32
2023/08/02 02:57:44;;;;;;;2.20;1.90;;;;;;;-128.00;-1.00;-1.00;18874;300;7505362;-37
2023/08/02 03:00:10;;;;;;;12.60;2.50;;;;;;;-128.00;-1.00;-1.00;18844;348;7504414;-36
2023/08/02 03:02:36;;;;;;;2.00;1.70;;;;;;;-128.00;-1.00;-1.00;18864;285;7504673;-34
2023/08/02 03:05:03;;;;;;;3.30;2.20;;;;;;;-128.00;-1.00;-1.00;18871;297;7504372;-33
2023/08/02 03:07:29;;;;;;;3.00;2.70;;;;;;;-128.00;-1.00;-1.00;18486;289;7505411;-37
2023/08/02 03:09:55;;;;;;;7.60;2.70;;;;;;;-128.00;-1.00;-1.00;18467;297;7506039;-37
2023/08/02 03:12:22;;;;;;;4.40;4.00;;;;;;;-128.00;-1.00;-1.00;18483;289;7506376;-37
2023/08/02 03:14:49;;;;;;;2.70;1.80;;;;;;;-128.00;-1.00;-1.00;18449;285;7504650;-33
2023/08/02 03:17:14;;;;;;;11.70;2.30;;;;;;;-128.00;-1.00;-1.00;18445;285;7504714;-37
2023/08/02 03:19:40;;;;;;;12.00;1.60;;;;;;;-128.00;-1.00;-1.00;18449;324;7504557;-33
2023/08/02 03:22:06;;;;;;;2.90;2.00;;;;;;;-128.00;-1.00;-1.00;18475;297;7505034;-36
2023/08/02 03:24:31;;;;;;;1.50;1.10;;;;;;;-128.00;-1.00;-1.00;18456;297;7504900;-36
2023/08/02 03:26:58;;;;;;;0.90;0.90;;;;;;;-128.00;-1.00;-1.00;18454;285;7505955;-33
2023/08/02 03:29:24;;;;;;;2.70;1.10;;;;;;;-128.00;-1.00;-1.00;18475;285;7506445;-32
2023/08/02 03:31:50;;;;;;;5.30;2.10;;;;;;;-128.00;-1.00;-1.00;18472;285;7506925;-36
2023/08/02 03:34:16;;;;;;;4.00;1.80;;;;;;;-128.00;-1.00;-1.00;18859;297;7504428;-36
2023/08/02 03:36:42;;;;;;;2.50;1.50;;;;;;;-128.00;-1.00;-1.00;18897;285;7506092;-33
2023/08/02 03:39:10;;;;;;;2.20;1.70;;;;;;;-128.00;-1.00;-1.00;18866;289;7504351;-36
2023/08/02 03:41:36;;;;;;;3.10;1.90;;;;;;;-128.00;-1.00;-1.00;18441;297;7504690;-33
2023/08/02 03:44:01;;;;;;;2.00;1.10;;;;;;;-128.00;-1.00;-1.00;18489;297;7504563;-37
2023/08/02 03:46:27;;;;;;;9.10;1.50;;;;;;;-128.00;-1.00;-1.00;18875;348;7504241;-37
2023/08/02 03:48:54;;;;;;;5.20;2.20;;;;;;;-128.00;-1.00;-1.00;18859;348;7504818;-33
2023/08/02 03:51:20;;;;;;;2.40;1.60;;;;;;;-128.00;-1.00;-1.00;18848;320;7505157;-36
2023/08/02 03:53:46;;;;;;;2.30;1.50;;;;;;;-128.00;-1.00;-1.00;18862;297;7504419;-36
2023/08/02 03:56:13;;;;;;;2.30;1.50;;;;;;;-128.00;-1.00;-1.00;18855;297;7505230;-36
2023/08/02 03:58:39;;;;;;;2.70;1.40;;;;;;;-128.00;-1.00;-1.00;18864;285;7504876;-35
2023/08/02 04:01:05;;;;;;;2.80;2.10;;;;;;;-128.00;-1.00;-1.00;18873;296;7504975;-35
2023/08/02 04:03:31;;;;;;;3.10;2.70;;;;;;;-128.00;-1.00;-1.00;18861;296;7504495;-35
2023/08/02 04:05:58;;;;;;;3.70;1.30;;;;;;;-128.00;-1.00;-1.00;18859;285;7504908;-35
2023/08/02 04:08:24;;;;;;;2.30;1.40;;;;;;;-128.00;-1.00;-1.00;18851;297;7505240;-32
2023/08/02 04:10:51;;;;;;;2.00;1.30;;;;;;;-128.00;-1.00;-1.00;18863;296;7505379;-32
2023/08/02 04:13:17;;;;;;;2.30;1.50;;;;;;;-128.00;-1.00;-1.00;18478;289;7506750;-32
2023/08/02 04:15:43;;;;;;;2.30;1.20;;;;;;;-128.00;-1.00;-1.00;18475;297;7504426;-35
2023/08/02 04:18:08;;;;;;;1.50;1.10;;;;;;;-128.00;-1.00;-1.00;18469;285;7504699;-35
2023/08/02 04:20:41;;;;;;;2.70;1.70;;;;;;;-128.00;-1.00;-1.00;18854;337;7504590;-33
2023/08/02 04:23:06;;;;;;;2.60;1.60;;;;;;;-128.00;-1.00;-1.00;18452;337;7504839;-34
2023/08/02 04:25:32;;;;;;;23.50;1.60;;;;;;;-128.00;-1.00;-1.00;18456;285;7504996;-36
2023/08/02 04:27:58;;;;;;;2.70;1.60;;;;;;;-128.00;-1.00;-1.00;18460;296;7505313;-33
2023/08/02 04:30:24;;;;;;;1.90;1.10;;;;;;;-128.00;-1.00;-1.00;18860;348;7504237;-35
2023/08/02 04:32:50;;;;;;;3.30;0.90;;;;;;;-128.00;-1.00;-1.00;18860;289;7505110;-35
2023/08/02 04:35:17;;;;;;;1.70;1.40;;;;;;;-128.00;-1.00;-1.00;18866;296;7504791;-31
2023/08/02 04:37:44;;;;;;;3.10;1.50;;;;;;;-128.00;-1.00;-1.00;18853;320;7504636;-35
2023/08/02 04:40:10;;;;;;;1.80;1.50;;;;;;;-128.00;-1.00;-1.00;18448;285;7506128;-32
2023/08/02 04:42:36;;;;;;;1.70;1.10;;;;;;;-128.00;-1.00;-1.00;18454;285;7505970;-35
2023/08/02 04:45:03;;;;;;;3.70;1.30;;;;;;;-128.00;-1.00;-1.00;18852;285;7504781;-32
2023/08/02 04:47:29;;;;;;;1.40;1.00;;;;;;;-128.00;-1.00;-1.00;18453;308;7506402;-35
2023/08/02 04:49:57;;;;;;;2.10;1.20;;;;;;;-128.00;-1.00;-1.00;18457;297;7504763;-35
2023/08/02 04:52:23;;;;;;;1.30;0.90;;;;;;;-128.00;-1.00;-1.00;18466;285;7507011;-36
2023/08/02 04:54:48;;;;;;;1.30;0.80;;;;;;;-128.00;-1.00;-1.00;18467;297;7505807;-32
2023/08/02 04:57:14;;;;;;;1.30;0.90;;;;;;;-128.00;-1.00;-1.00;18444;285;7504287;-33
2023/08/02 04:59:40;;;;;;;2.40;0.90;;;;;;;-128.00;-1.00;-1.00;18461;305;7504809;-32
2023/08/02 05:02:06;;;;;;;8.90;2.60;;;;;;;-128.00;-1.00;-1.00;18883;308;7504362;-36
2023/08/02 05:04:32;;;;;;;2.60;1.50;;;;;;;-128.00;-1.00;-1.00;18865;309;7504378;-36
2023/08/02 05:06:58;;;;;;;4.00;1.00;;;;;;;-128.00;-1.00;-1.00;18847;296;7504382;-32
2023/08/02 05:09:24;;;;;;;2.20;1.60;;;;;;;-128.00;-1.00;-1.00;18876;289;7505322;-36
2023/08/02 05:11:50;;;;;;;1.50;1.10;;;;;;;-128.00;-1.00;-1.00;18844;285;7504375;-36
2023/08/02 05:14:16;;;;;;;3.10;1.20;;;;;;;-128.00;-1.00;-1.00;18842;348;7504153;-35
2023/08/02 05:16:44;;;;;;;1.20;1.00;;;;;;;-128.00;-1.00;-1.00;18855;297;7504926;-33
2023/08/02 05:19:10;;;;;;;3.20;1.00;;;;;;;-128.00;-1.00;-1.00;18458;296;7504920;-33
2023/08/02 05:21:36;;;;;;;8.50;1.30;;;;;;;-128.00;-1.00;-1.00;18858;297;7504411;-32
2023/08/02 05:24:02;;;;;;;1.40;1.00;;;;;;;-128.00;-1.00;-1.00;18860;296;7504427;-35
2023/08/02 05:26:29;;;;;;;4.20;0.80;;;;;;;-128.00;-1.00;-1.00;18889;289;7504175;-36
2023/08/02 05:28:55;;;;;;;3.70;1.10;;;;;;;-128.00;-1.00;-1.00;18855;309;7505042;-35
2023/08/02 05:31:21;;;;;;;3.50;1.00;;;;;;;-128.00;-1.00;-1.00;18847;348;7504227;-33
2023/08/02 05:33:47;;;;;;;5.60;0.70;;;;;;;-128.00;-1.00;-1.00;18853;296;7505056;-36
2023/08/02 05:36:14;;;;;;;2.00;0.70;;;;;;;-128.00;-1.00;-1.00;18876;285;7504746;-33
2023/08/02 05:38:41;;;;;;;0.60;0.30;;;;;;;-128.00;-1.00;-1.00;18473;309;7506600;-36
2023/08/02 05:41:06;;;;;;;0.50;0.50;;;;;;;-128.00;-1.00;-1.00;18464;297;7506600;-34
2023/08/02 05:43:33;;;;;;;2.20;1.00;;;;;;;-128.00;-1.00;-1.00;18883;289;7504353;-36
2023/08/02 05:45:59;;;;;;;5.00;1.20;;;;;;;-128.00;-1.00;-1.00;18886;289;7504896;-33
2023/08/02 05:48:25;;;;;;;3.90;0.80;;;;;;;-128.00;-1.00;-1.00;18856;297;7506497;-35
2023/08/02 05:50:52;;;;;;;2.20;0.90;;;;;;;-128.00;-1.00;-1.00;18853;285;7504671;-36
2023/08/02 05:53:18;;;;;;;1.70;0.70;;;;;;;-128.00;-1.00;-1.00;18846;297;7504377;-31
2023/08/02 05:55:45;;;;;;;1.70;0.60;;;;;;;-128.00;-1.00;-1.00;18897;285;7504189;-35
2023/08/02 05:58:11;;;;;;;0.50;0.40;;;;;;;-128.00;-1.00;-1.00;18867;285;7504539;-32
2023/08/02 06:00:37;;;;;;;3.60;1.00;;;;;;;-128.00;-1.00;-1.00;18862;289;7505584;-32
2023/08/02 06:03:04;;;;;;;1.20;0.90;;;;;;;-128.00;-1.00;-1.00;18870;289;7504549;-32
2023/08/02 06:05:30;;;;;;;1.70;1.00;;;;;;;-128.00;-1.00;-1.00;18897;285;7505100;-32
2023/08/02 06:07:56;;;;;;;1.30;0.50;;;;;;;-128.00;-1.00;-1.00;18473;320;7504883;-33
2023/08/02 06:10:22;;;;;;;1.70;1.00;;;;;;;-128.00;-1.00;-1.00;18492;285;7505945;-32
2023/08/02 06:12:48;;;;;;;1.00;0.50;;;;;;;-128.00;-1.00;-1.00;18499;297;7504479;-35
2023/08/02 06:15:14;;;;;;;1.30;1.10;;;;;;;-128.00;-1.00;-1.00;18466;296;7504503;-36
2023/08/02 06:17:40;;;;;;;0.50;0.50;;;;;;;-128.00;-1.00;-1.00;18496;297;7504767;-33
2023/08/02 06:20:07;;;;;;;0.80;0.70;;;;;;;-128.00;-1.00;-1.00;18473;289;7504333;-37
2023/08/02 06:22:32;;;;;;;1.00;0.50;;;;;;;-128.00;-1.00;-1.00;18449;289;7504927;-33
2023/08/02 06:24:58;;;;;;;1.70;1.00;;;;;;;-128.00;-1.00;-1.00;18471;296;7504769;-33
2023/08/02 06:27:24;;;;;;;1.10;0.90;;;;;;;-128.00;-1.00;-1.00;18462;297;7504748;-37
2023/08/02 06:29:50;;;;;;;2.20;0.90;;;;;;;-128.00;-1.00;-1.00;18460;289;7504935;-34
2023/08/02 06:32:16;;;;;;;0.80;0.80;;;;;;;-128.00;-1.00;-1.00;18448;345;7504421;-37
2023/08/02 06:34:42;;;;;;;2.00;1.50;;;;;;;-128.00;-1.00;-1.00;18477;297;7505035;-32
2023/08/02 06:37:08;;;;;;;2.70;0.90;;;;;;;-128.00;-1.00;-1.00;18460;297;7505856;-36
2023/08/02 06:39:33;;;;;;;0.90;0.70;;;;;;;-128.00;-1.00;-1.00;18473;289;7504871;-32
2023/08/02 06:41:59;;;;;;;0.50;0.30;;;;;;;-128.00;-1.00;-1.00;18889;320;7504330;-33
2023/08/02 06:44:26;;;;;;;2.20;0.80;;;;;;;-128.00;-1.00;-1.00;18859;285;7507222;-33
2023/08/02 06:46:52;;;;;;;0.90;0.60;;;;;;;-128.00;-1.00;-1.00;18871;297;7504422;-36
2023/08/02 06:49:18;;;;;;;2.40;1.00;;;;;;;-128.00;-1.00;-1.00;18854;348;7504538;-36
2023/08/02 06:51:44;;;;;;;1.00;0.80;;;;;;;-128.00;-1.00;-1.00;18862;289;7504377;-36
2023/08/02 06:54:12;;;;;;;1.40;0.80;;;;;;;-128.00;-1.00;-1.00;18867;297;7505367;-31
2023/08/02 06:56:38;;;;;;;0.70;0.50;;;;;;;-128.00;-1.00;-1.00;18466;297;7505019;-36
2023/08/02 06:59:07;;;;;;;1.00;0.90;;;;;;;-128.00;-1.00;-1.00;18438;289;7506248;-32
2023/08/02 07:01:34;;;;;;;0.70;0.40;;;;;;;-128.00;-1.00;-1.00;18881;297;7505709;-36
2023/08/02 07:04:00;;;;;;;0.70;0.60;;;;;;;-128.00;-1.00;-1.00;18832;348;7504655;-33
2023/08/02 07:06:26;;;;;;;1.70;0.90;;;;;;;-128.00;-1.00;-1.00;18887;289;7504420;-32
2023/08/02 07:08:54;;;;;;;0.90;0.80;;;;;;;-128.00;-1.00;-1.00;18446;297;7505756;-32
2023/08/02 07:11:20;;;;;;;5.80;0.70;;;;;;;-128.00;-1.00;-1.00;18502;297;7505898;-32
2023/08/02 07:13:46;;;;;;;2.20;1.10;;;;;;;-128.00;-1.00;-1.00;18888;297;7504524;-32
2023/08/02 07:16:13;;;;;;;1.00;0.60;;;;;;;-128.00;-1.00;-1.00;18473;289;7505149;-36
2023/08/02 07:18:39;;;;;;;0.50;0.50;;;;;;;-128.00;-1.00;-1.00;18451;285;7506125;-32
2023/08/02 07:21:06;;;;;;;1.40;0.90;;;;;;;-128.00;-1.00;-1.00;18485;297;7505212;-32
2023/08/02 07:23:32;;;;;;;0.50;0.40;;;;;;;-128.00;-1.00;-1.00;18454;297;7505082;-35
2023/08/02 07:25:58;;;;;;;1.70;0.80;;;;;;;-128.00;-1.00;-1.00;18439;300;7506058;-32
2023/08/02 07:28:23;;;;;;;1.10;1.00;;;;;;;-128.00;-1.00;-1.00;18432;297;7505655;-32
2023/08/02 07:30:49;;;;;;;2.70;0.90;;;;;;;-128.00;-1.00;-1.00;18469;297;7505336;-32
2023/08/02 07:33:15;;;;;;;0.90;0.80;;;;;;;-128.00;-1.00;-1.00;18468;289;7506472;-36
2023/08/02 07:35:41;;;;;;;8.10;0.60;;;;;;;-128.00;-1.00;-1.00;18869;285;7505178;-33
2023/08/02 07:38:07;;;;;;;4.80;0.60;;;;;;;-128.00;-1.00;-1.00;18882;285;7504717;-33
2023/08/02 07:40:34;;;;;;;2.10;1.00;;;;;;;-128.00;-1.00;-1.00;18883;289;7504809;-32
2023/08/02 07:43:00;;;;;;;2.40;1.00;;;;;;;-128.00;-1.00;-1.00;18880;337;7504991;-30
2023/08/02 07:45:27;;;;;;;0.80;0.40;;;;;;;-128.00;-1.00;-1.00;18485;297;7505145;-35
2023/08/02 07:47:53;;;;;;;1.60;0.90;;;;;;;-128.00;-1.00;-1.00;18873;285;7504793;-37
2023/08/02 07:50:20;;;;;;;1.20;0.60;;;;;;;-128.00;-1.00;-1.00;18858;297;7504698;-35
2023/08/02 07:52:46;;;;;;;0.50;0.40;;;;;;;-128.00;-1.00;-1.00;18855;285;7504582;-36
2023/08/02 07:55:12;;;;;;;1.30;0.80;;;;;;;-128.00;-1.00;-1.00;18874;297;7505418;-35
2023/08/02 07:57:38;;;;;;;0.80;0.70;;;;;;;-128.00;-1.00;-1.00;18872;285;7504219;-32
2023/08/02 08:00:05;;;;;;;1.50;0.70;;;;;;;-128.00;-1.00;-1.00;18854;297;7504202;-32
2023/08/02 08:02:31;;;;;;;1.70;0.70;;;;;;;-128.00;-1.00;-1.00;18455;297;7504418;-32
2023/08/02 08:04:57;;;;;;;1.00;0.40;;;;;;;-128.00;-1.00;-1.00;18448;297;7504982;-36
2023/08/02 08:07:22;;;;;;;0.90;0.80;;;;;;;-128.00;-1.00;-1.00;18475;285;7504692;-32
2023/08/02 08:09:52;;;;;;;1.10;0.60;;;;;;;-128.00;-1.00;-1.00;18838;285;7504613;-35
2023/08/02 08:12:17;;;;;;;2.10;0.80;;;;;;;-128.00;-1.00;-1.00;18454;297;7505114;-32
2023/08/02 08:14:43;;;;;;;0.70;0.50;;;;;;;-128.00;-1.00;-1.00;18449;337;7505022;-31
2023/08/02 08:17:09;;;;;;;0.60;0.50;;;;;;;-128.00;-1.00;-1.00;18451;289;7504292;-36
2023/08/02 08:19:34;;;;;;;4.90;0.70;;;;;;;-128.00;-1.00;-1.00;18459;289;7505766;-32
2023/08/02 08:22:00;;;;;;;0.90;0.60;;;;;;;-128.00;-1.00;-1.00;18454;297;7504421;-32
2023/08/02 08:24:26;;;;;;;1.90;0.50;;;;;;;-128.00;-1.00;-1.00;18468;289;7506023;-34
2023/08/02 08:26:55;;;;;;;1.90;0.80;;;;;;;-128.00;-1.00;-1.00;18443;296;7505976;-33
2023/08/02 08:29:20;;;;;;;0.70;0.60;;;;;;;-128.00;-1.00;-1.00;18464;285;7506110;-35
2023/08/02 08:31:46;;;;;;;1.80;0.90;;;;;;;-128.00;-1.00;-1.00;18467;312;7506699;-35
2023/08/02 08:34:13;;;;;;;8.50;0.90;;;;;;;-128.00;-1.00;-1.00;18473;348;7504860;-35
2023/08/02 08:36:39;;;;;;;0.80;0.80;;;;;;;-128.00;-1.00;-1.00;18468;296;7505041;-32
2023/08/02 08:39:05;;;;;;;0.80;0.50;;;;;;;-128.00;-1.00;-1.00;18462;285;7505216;-35
2023/08/02 08:41:30;;;;;;;1.10;0.50;;;;;;;-128.00;-1.00;-1.00;18447;285;7505220;-36
2023/08/02 08:43:56;;;;;;;2.80;0.90;;;;;;;-128.00;-1.00;-1.00;18478;289;7504469;-32
2023/08/02 08:46:22;;;;;;;0.80;0.60;;;;;;;-128.00;-1.00;-1.00;18455;348;7506201;-35
2023/08/02 08:48:48;;;;;;;0.90;0.70;;;;;;;-128.00;-1.00;-1.00;18445;297;7507049;-32
2023/08/02 08:51:13;;;;;;;0.90;0.60;;;;;;;-128.00;-1.00;-1.00;18482;285;7504616;-32
2023/08/02 08:53:44;;;;;;;0.90;0.60;;;;;;;-128.00;-1.00;-1.00;18446;297;7506257;-35
2023/08/02 08:56:10;;;;;;;0.60;0.60;;;;;;;-128.00;-1.00;-1.00;18439;297;7504757;-32
2023/08/02 08:58:36;;;;;;;0.90;0.60;;;;;;;-128.00;-1.00;-1.00;18441;289;7504399;-33
2023/08/02 09:01:03;;;;;;;4.20;1.10;;;;;;;-128.00;-1.00;-1.00;18475;312;7504663;-31
2023/08/02 09:03:29;;;;;;;1.40;0.60;;;;;;;-128.00;-1.00;-1.00;18464;297;7505366;-35
2023/08/02 09:05:58;;;;;;;1.50;1.40;;;;;;;-128.00;-1.00;-1.00;18452;285;7504718;-31
2023/08/02 09:08:24;;;;;;;1.30;1.00;;;;;;;-128.00;-1.00;-1.00;18434;337;7504473;-31
2023/08/02 09:10:50;;;;;;;1.60;0.80;;;;;;;-128.00;-1.00;-1.00;18852;297;7504592;-31
2023/08/02 09:13:22;;;;;;;4.70;0.90;;;;;;;-128.00;-1.00;-1.00;18860;297;7504954;-31
2023/08/02 09:16:00;;;;;;;;;;;;;;;-128.00;-1.00;-1.00;18466;337;7504198;-31
2023/08/02 09:18:34;;;;;;;2.40;0.70;;;;;;;-128.00;-1.00;-1.00;18485;296;7504596;-31
2023/08/02 09:20:59;;;;;;;2.40;0.90;;;;;;;-128.00;-1.00;-1.00;18071;297;7504622;-31
2023/08/02 09:23:26;;;;;;;1.00;0.70;;;;;;;-128.00;-1.00;-1.00;18856;296;7504639;-31
2023/08/02 09:25:52;;;;;;;1.70;0.50;;;;;;;-128.00;-1.00;-1.00;18832;297;7504412;-35
2023/08/02 09:28:18;;;;;;;2.20;0.50;;;;;;;-128.00;-1.00;-1.00;18856;289;7506395;-32
2023/08/02 09:30:45;;;;;;;1.50;0.70;;;;;;;-128.00;-1.00;-1.00;18848;285;7505770;-35
2023/08/02 09:33:11;;;;;;;9.60;1.00;;;;;;;-128.00;-1.00;-1.00;18861;289;7504438;-31
2023/08/02 09:35:51;;;;;;;0.80;0.50;;;;;;;-128.00;-1.00;-1.00;18875;297;7504488;-31
2023/08/02 09:38:16;;;;;;;1.80;0.80;;;;;;;-128.00;-1.00;-1.00;18443;297;7504948;-35
2023/08/02 09:40:42;;;;;;;0.50;0.50;;;;;;;-128.00;-1.00;-1.00;18457;348;7505995;-35
2023/08/02 09:43:09;;;;;;;1.10;0.70;;;;;;;-128.00;-1.00;-1.00;18451;297;7504607;-35
2023/08/02 09:45:35;;;;;;;0.80;0.70;;;;;;;-128.00;-1.00;-1.00;18434;285;7504526;-32
2023/08/02 09:48:02;;;;;;;0.90;0.60;;;;;;;-128.00;-1.00;-1.00;18432;285;7505351;-31
2023/08/02 09:50:27;;;;;;;1.50;0.80;;;;;;;-128.00;-1.00;-1.00;18456;289;7505097;-36
2023/08/02 09:52:53;;;;;;;2.50;0.80;;;;;;;-128.00;-1.00;-1.00;18451;305;7506609;-36
2023/08/02 09:55:20;;;;;;;2.00;0.70;;;;;;;-128.00;-1.00;-1.00;18453;285;7506259;-34
2023/08/02 09:57:46;;;;;;;1.00;0.50;;;;;;;-128.00;-1.00;-1.00;18435;297;7506691;-32
2023/08/02 10:00:12;;;;;;;0.60;0.60;;;;;;;-128.00;-1.00;-1.00;18487;289;7505604;-36
2023/08/02 10:02:38;;;;;;;0.40;0.30;;;;;;;-128.00;-1.00;-1.00;18479;305;7505008;-32
2023/08/02 10:05:06;;;;;;;0.90;0.70;;;;;;;-128.00;-1.00;-1.00;18455;296;7504819;-32
2023/08/02 10:07:56;;;;;;;0.90;0.40;;;;;;;;;;101117;298;543860;-31
2023/08/02 10:10:25;;;;;;;0.50;0.40;;;;;;;;;;101263;288;22902;-30
2023/08/02 10:12:59;;;;;;;0.90;0.70;;;;;;;;;;101402;300;22889;-32
2023/08/02 10:15:25;;;;;;;1.70;0.70;;;;;;;;;;101197;300;22677;-34
2023/08/02 10:17:50;;;;;;;1.50;0.50;;;;;;;;;;101339;289;22671;-35
2023/08/02 10:20:16;;;;;;;0.70;0.30;;;;;;;;;;100956;289;700215;-34
2023/08/02 10:22:43;;;;;;;1.80;0.60;;;;;;;;;;101368;298;24141;-32
2023/08/02 10:25:10;;;;;;;1.40;0.70;;;;;;;;;;101518;299;22883;-35
2023/08/02 10:27:36;;;;;;;1.40;0.50;;;;;;;;;;101398;298;24152;-35
2023/08/02 10:30:02;;;;;;;0.60;0.50;;;;;;;;;;101453;298;24147;-33
2023/08/02 10:32:28;;;;;;;1.90;0.70;;;;;;;;;;101212;298;23033;-31
2023/08/02 10:34:53;;;;;;;1.10;0.60;;;;;;;;;;101345;298;24239;-35
2023/08/02 10:37:19;;;;;;;1.00;0.50;;;;;;;;;;101203;298;22844;-36
2023/08/02 10:39:53;;;;;;;2.40;0.70;;;;;;;;;;101263;298;22576;-31
2023/08/02 10:42:23;;;;;;;0.80;0.60;;;;;;;;;;101301;299;24149;-34
2023/08/02 10:45:08;;;;;;;8.10;0.60;;;;;;;;;;101471;300;22586;-32
2023/08/02 10:47:34;;;;;;;2.30;0.90;;;;;;;;;;101308;298;24216;-33
2023/08/02 10:50:00;;;;;;;1.10;0.60;;;;;;;;;;101252;299;24127;-32
2023/08/02 10:52:28;;;;;;;0.90;0.60;;;;;;;;;;101311;298;24146;-35
2023/08/02 10:55:06;;;;;;;0.60;0.40;;;;;;;;;;101467;299;24270;-31
2023/08/02 10:57:32;;;;;;;1.50;0.80;;;;;;;;;;101512;298;24147;-35
2023/08/02 10:59:58;;;;;;;0.70;0.50;;;;;;;;;;101255;298;24172;-37
2023/08/02 11:02:27;;;;;;;1.70;0.80;;;;;;;;;;101288;298;22822;-37
2023/08/02 11:04:53;;;;;;;1.60;0.60;;;;;;;;;;101449;299;24365;-32
2023/08/02 11:07:19;;;;;;;0.50;0.50;;;;;;;;;;101262;287;22724;-32
2023/08/02 11:09:45;;;;;;;0.50;0.50;;;;;;;;;;101206;298;22668;-32
2023/08/02 11:12:12;;;;;;;0.70;0.40;;;;;;;;;;101256;298;24335;-36
2023/08/02 11:14:38;;;;;;;0.60;0.50;;;;;;;;;;101284;298;22580;-36
2023/08/02 11:17:04;;;;;;;1.10;0.50;;;;;;;;;;101416;299;24118;-32
2023/08/02 11:19:29;;;;;;;1.50;0.70;;;;;;;;;;101320;299;22587;-32
2023/08/02 11:21:55;;;;;;;1.20;0.70;;;;;;;;;;101235;299;24040;-36
2023/08/02 11:24:22;;;;;;;5.00;0.60;;;;;;;;;;101293;299;24194;-32
2023/08/02 11:26:54;;;;;;;0.90;0.50;;;;;;;;;;101426;299;24212;-33
2023/08/02 11:29:20;;;;;;;;;;;;;;;;;;101362;299;22582;-38
2023/08/02 11:31:46;;;;;;;0.20;0.20;;;;;;;;;;101259;299;22581;-35
2023/08/02 11:34:17;;;;;;;1.30;0.80;;;;;;;;;;101383;299;23416;-31
2023/08/02 11:36:42;;;;;;;0.70;0.40;;;;;;;;;;101307;299;24146;-31
2023/08/02 11:39:08;;;;;;;0.70;0.70;;;;;;;;;;101490;299;22856;-35
2023/08/02 11:41:33;;;;;;;1.20;0.60;;;;;;;;;;101295;299;24236;-31
2023/08/02 11:43:59;;;;;;;1.20;0.90;;;;;;;;;;101353;299;24292;-35
2023/08/02 11:46:26;;;;;;;0.40;0.30;;;;;;;;;;101195;299;24149;-31
2023/08/02 11:48:52;;;;;;;0.50;0.40;;;;;;;;;;101466;299;22889;-33
2023/08/02 11:51:19;;;;;;;0.60;0.60;;;;;;;;;;101297;299;22884;-35
2023/08/02 11:53:51;;;;;;;0.90;0.50;;;;;;;;;;101198;299;25387;-36
2023/08/02 11:56:17;;;;;;;;;;;;;;;;;;101196;299;24145;-33
2023/08/02 11:58:44;;;;;;;5.20;0.80;;;;;;;;;;101354;299;25862;-34
2023/08/02 12:01:10;;;;;;;1.20;0.40;;;;;;;;;;101250;299;24135;-31
2023/08/02 12:03:36;;;;;;;0.60;0.40;;;;;;;;;;101318;299;24287;-31
2023/08/02 12:06:02;;;;;;;0.50;0.50;;;;;;;;;;101299;299;23011;-31
2023/08/02 12:08:27;;;;;;;4.40;0.50;;;;;;;;;;101364;299;22889;-32
2023/08/02 12:10:53;;;;;;;1.30;0.80;;;;;;;;;;101409;299;22588;-32
2023/08/02 12:13:19;;;;;;;1.50;0.80;;;;;;;;;;101307;299;22866;-35
2023/08/02 12:15:56;;;;;;;2.10;0.90;;;;;;;;;;101430;299;22582;-32
2023/08/02 12:18:22;;;;;;;0.90;0.70;;;;;;;;;;101286;287;22889;-35
2023/08/02 12:20:48;;;;;;;1.00;0.60;;;;;;;;;;101234;299;22576;-31
2023/08/02 12:23:27;;;;;;;1.40;0.70;;;;;;;;;;101264;298;22855;-34
2023/08/02 12:25:53;;;;;;;1.00;0.60;;;;;;;;;;101277;299;24280;-34
2023/08/02 12:28:18;;;;;;;0.50;0.50;;;;;;;;;;101309;299;24139;-37
2023/08/02 12:30:56;;;;;;;1.20;0.50;;;;;;;;;;101326;299;22610;-36
2023/08/02 12:33:21;;;;;;;0.40;0.30;;;;;;;;;;101320;299;22635;-35
2023/08/02 13:15:25;;;;;;;1.00;0.50;;;;;;;-97.08;6.74;19630.47;19549;295;8045993;-31
2023/08/02 13:17:51;;;;;;;2.00;0.60;;;;;;;-128.00;-1.00;-1.00;18061;308;7504862;-33
2023/08/02 13:20:17;;;;;;;0.60;0.40;;;;;;;-128.00;-1.00;-1.00;18467;294;7504855;-36
2023/08/02 13:22:43;;;;;;;0.70;0.30;;;;;;;-128.00;-1.00;-1.00;18468;294;7504330;-33